Douglas, MA (01516)

11:52 AM EDT on May 26, 2017 (GMT -0400)
SE Main St Douglas | | Change Station

Elev 594 ft 42.04 °N, 71.71 °W | Updated 14 seconds ago

Rain
Rain
52.2 °F
Feels Like 52.2 °F
N
2.0
Wind Variable Wind from North

Today
High -- | Low -- °F
--% Chance of Precip.
Yesterday
High -- | Low -- °F
Precip. -- in
Pressure 29.60 in
Visibility 10.0 miles
Clouds Overcast 900 ft
Dew Point 50 °F
Humidity 93%
Rainfall 1.42 in
Snow Depth Not available.
5:17 AM 8:11 PM
New Moon, 1% visible
METAR KSFZ 261456Z AUTO 33010KT 10SM RA OVC009 09/09 A2953 RMK AO2 CIG 006V012 SLP021 P0004 60017 T00940089 53014
Pressure 29.60 in
Visibility 10.0 miles
Clouds Overcast 900 ft
Dew Point 50 °F
Humidity 93%
Rainfall 1.42 in
Snow Depth Not available.
5:17 AM 8:11 PM
New Moon, 1% visible
METAR KSFZ 261456Z AUTO 33010KT 10SM RA OVC009 09/09 A2953 RMK AO2 CIG 006V012 SLP021 P0004 60017 T00940089 53014

Get Severe Weather Alerts

Thanks for signing up!

Be on the lookout for a verification email in your inbox.

You'll start receiving the daily forecast at 6 AM.

×

10-Day Weather Forecast

Almanac

Astronomy

May. 26, 2017 Rise Set
Actual Time
Civil Twilight
Nautical Twilight
Astronomical Twilight
Moon
Length of Visible Light
Length of Day
Tomorrow will be .
, % of the Moon is Illuminated

Today's Extremes

State Highs State Lows

Community

WunderPhotos

Category 6

Welcome to Category 6. This is the collective home for Weather Underground's featured writeups by Dr. Jeff Masters (right), Bob Henson (left), Chris Burt, and other regular contributors.

Nearby

Air Quality

  Air Quality AQ Index Pollutant
Not available.

Snow Depth

Station Depth Elevation

Earthquake Activity

City Distance Mag. Time & Date
Minimum magnitude displayed is 2.5.

Coastal Water Temperatures

Place Temperature

Stations

Nearby Weather Stations

Station Location Temp. Windchill Dew Point Humidity Wind Precip. Elev Updated Type
                   

Watches & Warnings

There are currently no watches in effect.